sensor_id;sensor_type;location;lat;lon;timestamp;P1;durP1;ratioP1;P2;durP2;ratioP2
30068;SDS011;16894;49.456;10.644;2023-07-02T00:00:27;64.73;;;60.57;;
30068;SDS011;16894;49.456;10.644;2023-07-02T00:02:53;59.90;;;56.33;;
30068;SDS011;16894;49.456;10.644;2023-07-02T00:05:18;67.67;;;63.60;;
30068;SDS011;16894;49.456;10.644;2023-07-02T00:07:44;83.20;;;78.30;;
30068;SDS011;16894;49.456;10.644;2023-07-02T00:10:10;70.93;;;66.78;;
30068;SDS011;16894;49.456;10.644;2023-07-02T00:12:36;73.32;;;68.90;;
30068;SDS011;16894;49.456;10.644;2023-07-02T00:15:01;78.85;;;74.15;;
30068;SDS011;16894;49.456;10.644;2023-07-02T00:19:54;77.43;;;72.78;;
30068;SDS011;16894;49.456;10.644;2023-07-02T00:22:20;86.68;;;81.47;;
30068;SDS011;16894;49.456;10.644;2023-07-02T00:24:46;98.55;;;92.68;;
30068;SDS011;16894;49.456;10.644;2023-07-02T00:29:38;92.35;;;86.80;;
30068;SDS011;16894;49.456;10.644;2023-07-02T00:32:04;116.07;;;109.27;;
30068;SDS011;16894;49.456;10.644;2023-07-02T00:34:30;111.82;;;105.22;;
30068;SDS011;16894;49.456;10.644;2023-07-02T00:36:56;132.43;;;124.57;;
30068;SDS011;16894;49.456;10.644;2023-07-02T00:39:21;116.77;;;109.80;;
30068;SDS011;16894;49.456;10.644;2023-07-02T00:41:47;117.97;;;110.90;;
30068;SDS011;16894;49.456;10.644;2023-07-02T00:44:13;116.05;;;108.95;;
30068;SDS011;16894;49.456;10.644;2023-07-02T00:46:38;111.25;;;104.75;;
30068;SDS011;16894;49.456;10.644;2023-07-02T00:49:04;98.28;;;92.45;;
30068;SDS011;16894;49.456;10.644;2023-07-02T00:51:31;108.15;;;101.78;;
30068;SDS011;16894;49.456;10.644;2023-07-02T00:53:57;111.68;;;105.03;;
30068;SDS011;16894;49.456;10.644;2023-07-02T00:56:24;113.22;;;106.43;;
30068;SDS011;16894;49.456;10.644;2023-07-02T00:58:52;108.97;;;102.55;;
30068;SDS011;16894;49.456;10.644;2023-07-02T01:01:20;112.53;;;105.90;;
30068;SDS011;16894;49.456;10.644;2023-07-02T01:03:51;102.15;;;96.15;;
30068;SDS011;16894;49.456;10.644;2023-07-02T01:06:30;112.85;;;106.10;;
30068;SDS011;16894;49.456;10.644;2023-07-02T01:08:58;109.05;;;102.53;;
30068;SDS011;16894;49.456;10.644;2023-07-02T01:14:25;105.07;;;98.85;;
30068;SDS011;16894;49.456;10.644;2023-07-02T01:16:54;90.10;;;83.65;;
30068;SDS011;16894;49.456;10.644;2023-07-02T01:22:07;61.22;;;57.53;;
30068;SDS011;16894;49.456;10.644;2023-07-02T01:24:33;58.10;;;54.42;;
30068;SDS011;16894;49.456;10.644;2023-07-02T01:27:00;54.10;;;50.72;;
30068;SDS011;16894;49.456;10.644;2023-07-02T01:29:28;45.05;;;42.35;;
30068;SDS011;16894;49.456;10.644;2023-07-02T01:31:55;38.13;;;35.70;;
30068;SDS011;16894;49.456;10.644;2023-07-02T01:34:21;35.08;;;32.92;;
30068;SDS011;16894;49.456;10.644;2023-07-02T01:36:46;28.33;;;26.63;;
30068;SDS011;16894;49.456;10.644;2023-07-02T01:39:12;25.08;;;23.48;;
30068;SDS011;16894;49.456;10.644;2023-07-02T01:41:43;22.80;;;21.50;;
30068;SDS011;16894;49.456;10.644;2023-07-02T01:44:10;25.00;;;23.40;;
30068;SDS011;16894;49.456;10.644;2023-07-02T01:46:36;23.77;;;22.25;;
30068;SDS011;16894;49.456;10.644;2023-07-02T01:49:02;25.45;;;23.95;;
30068;SDS011;16894;49.456;10.644;2023-07-02T01:51:28;22.67;;;21.23;;
30068;SDS011;16894;49.456;10.644;2023-07-02T01:53:53;22.33;;;21.03;;
30068;SDS011;16894;49.456;10.644;2023-07-02T01:56:19;24.97;;;23.10;;
30068;SDS011;16894;49.456;10.644;2023-07-02T01:58:45;31.67;;;29.40;;
30068;SDS011;16894;49.456;10.644;2023-07-02T02:01:10;26.65;;;25.08;;
30068;SDS011;16894;49.456;10.644;2023-07-02T02:03:36;27.03;;;25.43;;
30068;SDS011;16894;49.456;10.644;2023-07-02T02:06:02;27.47;;;25.67;;
30068;SDS011;16894;49.456;10.644;2023-07-02T02:08:27;26.83;;;25.17;;
30068;SDS011;16894;49.456;10.644;2023-07-02T02:10:53;27.50;;;25.80;;
30068;SDS011;16894;49.456;10.644;2023-07-02T02:13:18;28.00;;;26.17;;
30068;SDS011;16894;49.456;10.644;2023-07-02T02:15:44;30.53;;;28.70;;
30068;SDS011;16894;49.456;10.644;2023-07-02T02:18:10;29.30;;;27.50;;
30068;SDS011;16894;49.456;10.644;2023-07-02T02:20:35;27.40;;;25.73;;
30068;SDS011;16894;49.456;10.644;2023-07-02T02:23:01;28.87;;;26.70;;
30068;SDS011;16894;49.456;10.644;2023-07-02T02:25:27;30.85;;;28.75;;
30068;SDS011;16894;49.456;10.644;2023-07-02T02:27:53;30.70;;;28.60;;
30068;SDS011;16894;49.456;10.644;2023-07-02T02:30:18;29.60;;;27.90;;
30068;SDS011;16894;49.456;10.644;2023-07-02T02:32:44;28.87;;;27.17;;
30068;SDS011;16894;49.456;10.644;2023-07-02T02:35:10;30.47;;;28.63;;
30068;SDS011;16894;49.456;10.644;2023-07-02T02:37:36;31.30;;;29.50;;
30068;SDS011;16894;49.456;10.644;2023-07-02T02:40:03;26.30;;;24.63;;
30068;SDS011;16894;49.456;10.644;2023-07-02T02:42:30;29.98;;;28.13;;
30068;SDS011;16894;49.456;10.644;2023-07-02T02:44:56;30.08;;;28.17;;
30068;SDS011;16894;49.456;10.644;2023-07-02T02:47:22;30.13;;;28.33;;
30068;SDS011;16894;49.456;10.644;2023-07-02T02:49:47;28.97;;;27.10;;
30068;SDS011;16894;49.456;10.644;2023-07-02T02:52:13;29.53;;;27.73;;
30068;SDS011;16894;49.456;10.644;2023-07-02T02:54:41;31.33;;;29.42;;
30068;SDS011;16894;49.456;10.644;2023-07-02T02:57:06;29.60;;;27.63;;
30068;SDS011;16894;49.456;10.644;2023-07-02T02:59:32;28.83;;;27.17;;
30068;SDS011;16894;49.456;10.644;2023-07-02T03:01:57;31.23;;;29.33;;
30068;SDS011;16894;49.456;10.644;2023-07-02T03:04:23;30.48;;;28.67;;
30068;SDS011;16894;49.456;10.644;2023-07-02T03:07:08;27.42;;;25.80;;
30068;SDS011;16894;49.456;10.644;2023-07-02T03:09:52;29.90;;;28.15;;
30068;SDS011;16894;49.456;10.644;2023-07-02T03:12:36;28.70;;;26.70;;
30068;SDS011;16894;49.456;10.644;2023-07-02T03:15:21;29.95;;;28.20;;
30068;SDS011;16894;49.456;10.644;2023-07-02T03:18:05;27.70;;;26.00;;
30068;SDS011;16894;49.456;10.644;2023-07-02T03:20:50;27.48;;;25.67;;
30068;SDS011;16894;49.456;10.644;2023-07-02T03:23:34;26.48;;;24.75;;
30068;SDS011;16894;49.456;10.644;2023-07-02T03:26:18;26.88;;;25.30;;
30068;SDS011;16894;49.456;10.644;2023-07-02T03:29:03;27.83;;;26.15;;
30068;SDS011;16894;49.456;10.644;2023-07-02T03:31:48;29.50;;;27.63;;
30068;SDS011;16894;49.456;10.644;2023-07-02T03:34:32;30.13;;;28.33;;
30068;SDS011;16894;49.456;10.644;2023-07-02T03:37:16;32.90;;;30.83;;
30068;SDS011;16894;49.456;10.644;2023-07-02T03:40:02;34.97;;;32.85;;
30068;SDS011;16894;49.456;10.644;2023-07-02T03:42:47;31.95;;;29.73;;
30068;SDS011;16894;49.456;10.644;2023-07-02T03:45:31;35.17;;;32.65;;
30068;SDS011;16894;49.456;10.644;2023-07-02T03:48:16;37.33;;;34.97;;
30068;SDS011;16894;49.456;10.644;2023-07-02T03:51:01;41.72;;;39.30;;
30068;SDS011;16894;49.456;10.644;2023-07-02T03:53:46;59.47;;;55.83;;
30068;SDS011;16894;49.456;10.644;2023-07-02T03:56:30;64.85;;;60.95;;
30068;SDS011;16894;49.456;10.644;2023-07-02T03:59:14;71.03;;;66.45;;
30068;SDS011;16894;49.456;10.644;2023-07-02T04:01:58;59.85;;;56.30;;
30068;SDS011;16894;49.456;10.644;2023-07-02T04:04:42;65.68;;;60.85;;
30068;SDS011;16894;49.456;10.644;2023-07-02T04:07:26;65.88;;;61.97;;
30068;SDS011;16894;49.456;10.644;2023-07-02T04:10:12;67.07;;;63.15;;
30068;SDS011;16894;49.456;10.644;2023-07-02T04:12:56;69.00;;;64.80;;
30068;SDS011;16894;49.456;10.644;2023-07-02T04:15:40;73.50;;;68.78;;
30068;SDS011;16894;49.456;10.644;2023-07-02T04:18:24;67.57;;;63.58;;
30068;SDS011;16894;49.456;10.644;2023-07-02T04:21:08;76.10;;;71.45;;
30068;SDS011;16894;49.456;10.644;2023-07-02T04:23:53;70.00;;;65.90;;
30068;SDS011;16894;49.456;10.644;2023-07-02T04:26:37;67.93;;;63.83;;
30068;SDS011;16894;49.456;10.644;2023-07-02T04:29:26;81.82;;;76.82;;
30068;SDS011;16894;49.456;10.644;2023-07-02T04:32:10;72.07;;;67.78;;
30068;SDS011;16894;49.456;10.644;2023-07-02T04:34:55;77.07;;;72.50;;
30068;SDS011;16894;49.456;10.644;2023-07-02T04:37:39;78.63;;;74.03;;
30068;SDS011;16894;49.456;10.644;2023-07-02T04:40:23;94.00;;;88.38;;
30068;SDS011;16894;49.456;10.644;2023-07-02T04:43:08;109.35;;;102.57;;
30068;SDS011;16894;49.456;10.644;2023-07-02T04:45:52;105.03;;;98.72;;
30068;SDS011;16894;49.456;10.644;2023-07-02T04:48:38;102.43;;;96.20;;
30068;SDS011;16894;49.456;10.644;2023-07-02T04:51:22;112.97;;;106.00;;
30068;SDS011;16894;49.456;10.644;2023-07-02T04:54:06;134.63;;;126.47;;
30068;SDS011;16894;49.456;10.644;2023-07-02T04:56:50;157.75;;;148.10;;
30068;SDS011;16894;49.456;10.644;2023-07-02T04:59:35;150.82;;;141.77;;
30068;SDS011;16894;49.456;10.644;2023-07-02T05:02:18;175.18;;;164.70;;
30068;SDS011;16894;49.456;10.644;2023-07-02T05:05:03;176.40;;;165.88;;
30068;SDS011;16894;49.456;10.644;2023-07-02T05:07:47;178.88;;;168.02;;
30068;SDS011;16894;49.456;10.644;2023-07-02T05:10:32;177.38;;;166.77;;
30068;SDS011;16894;49.456;10.644;2023-07-02T05:13:16;218.75;;;205.85;;
30068;SDS011;16894;49.456;10.644;2023-07-02T05:16:00;215.20;;;202.23;;
30068;SDS011;16894;49.456;10.644;2023-07-02T05:18:44;347.25;;;326.40;;
30068;SDS011;16894;49.456;10.644;2023-07-02T05:21:29;529.60;;;494.45;;
30068;SDS011;16894;49.456;10.644;2023-07-02T05:24:13;681.08;;;631.10;;
30068;SDS011;16894;49.456;10.644;2023-07-02T05:26:57;763.60;;;705.88;;
30068;SDS011;16894;49.456;10.644;2023-07-02T05:29:42;743.90;;;687.20;;
30068;SDS011;16894;49.456;10.644;2023-07-02T05:32:27;882.70;;;811.58;;
30068;SDS011;16894;49.456;10.644;2023-07-02T05:35:11;991.63;;;905.95;;
30068;SDS011;16894;49.456;10.644;2023-07-02T05:37:56;975.25;;;891.85;;
30068;SDS011;16894;49.456;10.644;2023-07-02T05:40:40;911.42;;;837.40;;
30068;SDS011;16894;49.456;10.644;2023-07-02T05:43:24;933.83;;;857.47;;
30068;SDS011;16894;49.456;10.644;2023-07-02T05:46:08;915.55;;;840.28;;
30068;SDS011;16894;49.456;10.644;2023-07-02T05:48:52;844.35;;;778.03;;
30068;SDS011;16894;49.456;10.644;2023-07-02T05:51:39;786.58;;;726.05;;
30068;SDS011;16894;49.456;10.644;2023-07-02T05:54:23;804.40;;;742.97;;
30068;SDS011;16894;49.456;10.644;2023-07-02T05:57:07;876.97;;;804.58;;
30068;SDS011;16894;49.456;10.644;2023-07-02T05:59:51;889.72;;;817.45;;
30068;SDS011;16894;49.456;10.644;2023-07-02T06:02:35;1067.93;;;964.60;;
30068;SDS011;16894;49.456;10.644;2023-07-02T06:05:20;1143.78;;;999.90;;
30068;SDS011;16894;49.456;10.644;2023-07-02T06:08:04;1190.22;;;999.90;;
30068;SDS011;16894;49.456;10.644;2023-07-02T06:10:48;1176.38;;;999.90;;
30068;SDS011;16894;49.456;10.644;2023-07-02T06:13:33;1178.63;;;999.90;;
30068;SDS011;16894;49.456;10.644;2023-07-02T06:16:16;1143.35;;;999.90;;
30068;SDS011;16894;49.456;10.644;2023-07-02T06:19:01;1138.90;;;999.90;;
30068;SDS011;16894;49.456;10.644;2023-07-02T06:21:45;1156.90;;;999.90;;
30068;SDS011;16894;49.456;10.644;2023-07-02T06:24:30;1165.05;;;999.90;;
30068;SDS011;16894;49.456;10.644;2023-07-02T06:27:14;1162.57;;;999.90;;
30068;SDS011;16894;49.456;10.644;2023-07-02T06:29:58;1131.75;;;999.90;;
30068;SDS011;16894;49.456;10.644;2023-07-02T06:32:42;1130.55;;;999.60;;
30068;SDS011;16894;49.456;10.644;2023-07-02T06:35:26;1144.80;;;999.90;;
30068;SDS011;16894;49.456;10.644;2023-07-02T06:38:10;1157.28;;;999.63;;
30068;SDS011;16894;49.456;10.644;2023-07-02T06:40:55;1107.10;;;996.58;;
30068;SDS011;16894;49.456;10.644;2023-07-02T06:43:41;1175.38;;;999.90;;
30068;SDS011;16894;49.456;10.644;2023-07-02T06:46:26;1171.55;;;999.90;;
30068;SDS011;16894;49.456;10.644;2023-07-02T06:49:10;1161.57;;;999.90;;
30068;SDS011;16894;49.456;10.644;2023-07-02T06:51:54;1137.47;;;999.90;;
30068;SDS011;16894;49.456;10.644;2023-07-02T06:54:38;1182.95;;;999.90;;
30068;SDS011;16894;49.456;10.644;2023-07-02T06:57:23;1177.05;;;999.90;;
30068;SDS011;16894;49.456;10.644;2023-07-02T07:00:07;1199.95;;;999.90;;
30068;SDS011;16894;49.456;10.644;2023-07-02T07:02:52;1204.68;;;999.90;;
30068;SDS011;16894;49.456;10.644;2023-07-02T07:05:36;1193.63;;;999.90;;
30068;SDS011;16894;49.456;10.644;2023-07-02T07:08:20;1338.80;;;990.67;;
30068;SDS011;16894;49.456;10.644;2023-07-02T07:11:04;1077.22;;;931.38;;
30068;SDS011;16894;49.456;10.644;2023-07-02T07:13:49;1104.45;;;933.13;;
30068;SDS011;16894;49.456;10.644;2023-07-02T07:16:33;1174.10;;;999.90;;
30068;SDS011;16894;49.456;10.644;2023-07-02T07:19:17;1068.13;;;875.10;;
30068;SDS011;16894;49.456;10.644;2023-07-02T07:22:01;1062.25;;;892.55;;
30068;SDS011;16894;49.456;10.644;2023-07-02T07:24:46;1186.47;;;999.90;;
30068;SDS011;16894;49.456;10.644;2023-07-02T07:27:30;1128.72;;;956.58;;
30068;SDS011;16894;49.456;10.644;2023-07-02T07:30:14;1197.38;;;999.90;;
30068;SDS011;16894;49.456;10.644;2023-07-02T07:32:58;1085.35;;;923.20;;
30068;SDS011;16894;49.456;10.644;2023-07-02T07:35:42;1187.55;;;999.90;;
30068;SDS011;16894;49.456;10.644;2023-07-02T07:38:26;1129.57;;;957.30;;
30068;SDS011;16894;49.456;10.644;2023-07-02T07:41:10;1155.68;;;999.90;;
30068;SDS011;16894;49.456;10.644;2023-07-02T07:43:55;1178.45;;;986.88;;
30068;SDS011;16894;49.456;10.644;2023-07-02T07:46:39;1074.57;;;890.60;;
30068;SDS011;16894;49.456;10.644;2023-07-02T07:49:23;1123.97;;;935.47;;
30068;SDS011;16894;49.456;10.644;2023-07-02T07:52:08;1154.78;;;988.85;;
30068;SDS011;16894;49.456;10.644;2023-07-02T07:54:53;1235.13;;;999.90;;
30068;SDS011;16894;49.456;10.644;2023-07-02T07:57:37;1053.75;;;837.55;;
30068;SDS011;16894;49.456;10.644;2023-07-02T08:00:21;1690.35;;;881.58;;
30068;SDS011;16894;49.456;10.644;2023-07-02T08:03:09;1756.32;;;955.22;;
30068;SDS011;16894;49.456;10.644;2023-07-02T08:05:53;1084.53;;;866.05;;
30068;SDS011;16894;49.456;10.644;2023-07-02T08:08:38;1999.90;;;999.90;;
30068;SDS011;16894;49.456;10.644;2023-07-02T08:11:22;1999.90;;;999.90;;
30068;SDS011;16894;49.456;10.644;2023-07-02T08:14:06;1262.25;;;666.83;;
30068;SDS011;16894;49.456;10.644;2023-07-02T08:16:50;1999.90;;;999.90;;
30068;SDS011;16894;49.456;10.644;2023-07-02T08:19:34;1999.90;;;999.90;;
30068;SDS011;16894;49.456;10.644;2023-07-02T08:22:18;1999.90;;;999.90;;
30068;SDS011;16894;49.456;10.644;2023-07-02T08:25:03;1999.90;;;999.90;;
30068;SDS011;16894;49.456;10.644;2023-07-02T08:27:48;1999.90;;;999.90;;
30068;SDS011;16894;49.456;10.644;2023-07-02T08:30:32;1999.90;;;999.90;;
30068;SDS011;16894;49.456;10.644;2023-07-02T08:33:17;1999.90;;;999.90;;
30068;SDS011;16894;49.456;10.644;2023-07-02T08:36:01;1999.90;;;999.90;;
30068;SDS011;16894;49.456;10.644;2023-07-02T08:38:45;1999.90;;;999.90;;
30068;SDS011;16894;49.456;10.644;2023-07-02T08:41:29;1999.90;;;999.90;;
30068;SDS011;16894;49.456;10.644;2023-07-02T08:44:17;1999.90;;;999.90;;
30068;SDS011;16894;49.456;10.644;2023-07-02T08:47:04;1999.90;;;999.90;;
30068;SDS011;16894;49.456;10.644;2023-07-02T08:49:50;1999.90;;;999.90;;
30068;SDS011;16894;49.456;10.644;2023-07-02T08:52:34;1999.90;;;999.90;;
30068;SDS011;16894;49.456;10.644;2023-07-02T08:55:18;1999.90;;;999.90;;
30068;SDS011;16894;49.456;10.644;2023-07-02T08:58:03;1999.90;;;999.90;;
30068;SDS011;16894;49.456;10.644;2023-07-02T09:01:03;1999.90;;;999.90;;
30068;SDS011;16894;49.456;10.644;2023-07-02T09:03:58;1999.90;;;999.90;;
30068;SDS011;16894;49.456;10.644;2023-07-02T09:06:49;1999.90;;;999.90;;
30068;SDS011;16894;49.456;10.644;2023-07-02T09:09:48;1999.90;;;999.90;;
30068;SDS011;16894;49.456;10.644;2023-07-02T09:12:33;1999.90;;;999.90;;
30068;SDS011;16894;49.456;10.644;2023-07-02T09:15:19;1999.90;;;999.90;;
30068;SDS011;16894;49.456;10.644;2023-07-02T09:18:03;1999.90;;;999.90;;
30068;SDS011;16894;49.456;10.644;2023-07-02T09:20:58;1999.90;;;999.90;;
30068;SDS011;16894;49.456;10.644;2023-07-02T09:23:42;1999.90;;;999.90;;
30068;SDS011;16894;49.456;10.644;2023-07-02T09:26:27;1999.90;;;999.90;;
30068;SDS011;16894;49.456;10.644;2023-07-02T09:29:12;1999.90;;;999.90;;
30068;SDS011;16894;49.456;10.644;2023-07-02T09:31:57;1999.90;;;999.90;;
30068;SDS011;16894;49.456;10.644;2023-07-02T09:34:47;1999.90;;;999.90;;
30068;SDS011;16894;49.456;10.644;2023-07-02T09:37:31;1999.90;;;999.90;;
30068;SDS011;16894;49.456;10.644;2023-07-02T09:40:16;1999.90;;;999.90;;
30068;SDS011;16894;49.456;10.644;2023-07-02T09:43:01;1999.90;;;999.90;;
30068;SDS011;16894;49.456;10.644;2023-07-02T09:45:46;1999.90;;;999.90;;
30068;SDS011;16894;49.456;10.644;2023-07-02T09:48:33;1999.90;;;999.90;;
30068;SDS011;16894;49.456;10.644;2023-07-02T09:51:19;1999.90;;;999.90;;
30068;SDS011;16894;49.456;10.644;2023-07-02T09:54:04;1999.90;;;999.90;;
30068;SDS011;16894;49.456;10.644;2023-07-02T09:56:49;1999.90;;;999.90;;
30068;SDS011;16894;49.456;10.644;2023-07-02T09:59:34;1999.90;;;999.90;;
30068;SDS011;16894;49.456;10.644;2023-07-02T10:02:18;1999.90;;;999.90;;
30068;SDS011;16894;49.456;10.644;2023-07-02T10:05:03;1999.90;;;999.90;;
30068;SDS011;16894;49.456;10.644;2023-07-02T10:07:48;1999.90;;;999.90;;
30068;SDS011;16894;49.456;10.644;2023-07-02T10:10:32;1999.90;;;999.90;;
30068;SDS011;16894;49.456;10.644;2023-07-02T10:13:26;1999.90;;;999.90;;
30068;SDS011;16894;49.456;10.644;2023-07-02T10:16:11;1999.90;;;999.90;;
30068;SDS011;16894;49.456;10.644;2023-07-02T10:18:55;1999.90;;;999.90;;
30068;SDS011;16894;49.456;10.644;2023-07-02T10:22:02;1999.90;;;999.90;;
30068;SDS011;16894;49.456;10.644;2023-07-02T10:25:05;1999.90;;;999.90;;
30068;SDS011;16894;49.456;10.644;2023-07-02T10:27:50;1999.90;;;999.90;;
30068;SDS011;16894;49.456;10.644;2023-07-02T10:30:35;1999.90;;;999.90;;
30068;SDS011;16894;49.456;10.644;2023-07-02T10:33:21;1999.90;;;999.90;;
30068;SDS011;16894;49.456;10.644;2023-07-02T10:36:07;1999.90;;;999.90;;
30068;SDS011;16894;49.456;10.644;2023-07-02T10:39:04;1999.90;;;999.90;;
30068;SDS011;16894;49.456;10.644;2023-07-02T10:41:49;1999.90;;;999.90;;
30068;SDS011;16894;49.456;10.644;2023-07-02T10:44:33;1999.90;;;999.90;;
30068;SDS011;16894;49.456;10.644;2023-07-02T10:47:18;1999.90;;;999.90;;
30068;SDS011;16894;49.456;10.644;2023-07-02T10:50:12;1999.90;;;999.90;;
30068;SDS011;16894;49.456;10.644;2023-07-02T10:53:00;1999.90;;;999.90;;
30068;SDS011;16894;49.456;10.644;2023-07-02T10:55:52;1999.90;;;999.90;;
30068;SDS011;16894;49.456;10.644;2023-07-02T10:58:42;1999.90;;;999.90;;
30068;SDS011;16894;49.456;10.644;2023-07-02T11:01:31;1999.90;;;999.90;;
30068;SDS011;16894;49.456;10.644;2023-07-02T11:04:15;1999.90;;;999.90;;
30068;SDS011;16894;49.456;10.644;2023-07-02T11:06:59;1999.90;;;999.90;;
30068;SDS011;16894;49.456;10.644;2023-07-02T11:09:49;1999.90;;;999.90;;
30068;SDS011;16894;49.456;10.644;2023-07-02T11:12:35;1999.90;;;999.90;;
30068;SDS011;16894;49.456;10.644;2023-07-02T11:15:21;1999.90;;;999.90;;
30068;SDS011;16894;49.456;10.644;2023-07-02T11:18:09;1999.90;;;999.90;;
30068;SDS011;16894;49.456;10.644;2023-07-02T11:20:54;1999.90;;;999.90;;
30068;SDS011;16894;49.456;10.644;2023-07-02T11:23:38;1999.90;;;999.90;;
30068;SDS011;16894;49.456;10.644;2023-07-02T11:26:23;1999.90;;;999.90;;
30068;SDS011;16894;49.456;10.644;2023-07-02T11:29:10;1999.90;;;999.90;;
30068;SDS011;16894;49.456;10.644;2023-07-02T11:32:08;1999.90;;;999.90;;
30068;SDS011;16894;49.456;10.644;2023-07-02T11:34:54;1999.90;;;999.90;;
30068;SDS011;16894;49.456;10.644;2023-07-02T11:37:40;1999.90;;;999.90;;
30068;SDS011;16894;49.456;10.644;2023-07-02T11:40:24;1999.90;;;999.90;;
30068;SDS011;16894;49.456;10.644;2023-07-02T11:43:08;1999.90;;;999.90;;
30068;SDS011;16894;49.456;10.644;2023-07-02T11:45:52;1999.90;;;999.90;;
30068;SDS011;16894;49.456;10.644;2023-07-02T11:48:37;1999.90;;;999.90;;
30068;SDS011;16894;49.456;10.644;2023-07-02T11:51:24;1999.90;;;999.90;;
30068;SDS011;16894;49.456;10.644;2023-07-02T11:54:08;1999.90;;;999.90;;
30068;SDS011;16894;49.456;10.644;2023-07-02T11:56:52;1999.90;;;999.90;;
30068;SDS011;16894;49.456;10.644;2023-07-02T11:59:36;1999.90;;;999.90;;
30068;SDS011;16894;49.456;10.644;2023-07-02T12:02:20;1999.90;;;999.90;;
30068;SDS011;16894;49.456;10.644;2023-07-02T12:05:07;1999.90;;;999.90;;
30068;SDS011;16894;49.456;10.644;2023-07-02T12:07:52;1999.90;;;999.90;;
30068;SDS011;16894;49.456;10.644;2023-07-02T12:10:36;1999.90;;;999.90;;
30068;SDS011;16894;49.456;10.644;2023-07-02T12:13:20;1999.90;;;999.90;;
30068;SDS011;16894;49.456;10.644;2023-07-02T12:16:04;1999.90;;;999.90;;
30068;SDS011;16894;49.456;10.644;2023-07-02T12:18:48;1999.90;;;999.90;;
30068;SDS011;16894;49.456;10.644;2023-07-02T12:21:32;1999.90;;;999.90;;
30068;SDS011;16894;49.456;10.644;2023-07-02T12:24:17;1999.90;;;999.90;;
30068;SDS011;16894;49.456;10.644;2023-07-02T12:27:01;1999.90;;;999.90;;
30068;SDS011;16894;49.456;10.644;2023-07-02T12:29:45;1999.90;;;999.90;;
30068;SDS011;16894;49.456;10.644;2023-07-02T12:32:29;1999.90;;;999.90;;
30068;SDS011;16894;49.456;10.644;2023-07-02T12:35:13;1999.90;;;999.90;;
30068;SDS011;16894;49.456;10.644;2023-07-02T12:37:59;1999.90;;;999.90;;
30068;SDS011;16894;49.456;10.644;2023-07-02T12:40:44;1999.90;;;999.90;;
30068;SDS011;16894;49.456;10.644;2023-07-02T12:43:29;1999.90;;;999.90;;
30068;SDS011;16894;49.456;10.644;2023-07-02T12:46:13;1999.90;;;999.90;;
30068;SDS011;16894;49.456;10.644;2023-07-02T12:48:58;1999.90;;;999.90;;
30068;SDS011;16894;49.456;10.644;2023-07-02T12:51:42;1999.90;;;999.90;;
30068;SDS011;16894;49.456;10.644;2023-07-02T12:54:26;1999.90;;;999.90;;
30068;SDS011;16894;49.456;10.644;2023-07-02T12:57:11;1999.90;;;999.90;;
30068;SDS011;16894;49.456;10.644;2023-07-02T12:59:55;1999.90;;;999.90;;
30068;SDS011;16894;49.456;10.644;2023-07-02T13:02:39;1999.90;;;999.90;;
30068;SDS011;16894;49.456;10.644;2023-07-02T13:05:23;1999.90;;;999.90;;
30068;SDS011;16894;49.456;10.644;2023-07-02T13:08:07;1999.90;;;999.90;;
30068;SDS011;16894;49.456;10.644;2023-07-02T13:10:54;1999.90;;;999.90;;
30068;SDS011;16894;49.456;10.644;2023-07-02T13:13:38;1999.90;;;999.90;;
30068;SDS011;16894;49.456;10.644;2023-07-02T13:16:22;1999.90;;;999.90;;
30068;SDS011;16894;49.456;10.644;2023-07-02T13:19:07;1999.90;;;999.90;;
30068;SDS011;16894;49.456;10.644;2023-07-02T13:21:51;1999.90;;;999.90;;
30068;SDS011;16894;49.456;10.644;2023-07-02T13:24:35;1999.90;;;999.90;;
30068;SDS011;16894;49.456;10.644;2023-07-02T13:27:20;1999.90;;;999.90;;
30068;SDS011;16894;49.456;10.644;2023-07-02T13:30:05;1999.90;;;999.90;;
30068;SDS011;16894;49.456;10.644;2023-07-02T13:32:51;1999.90;;;999.90;;
30068;SDS011;16894;49.456;10.644;2023-07-02T13:35:36;1999.90;;;999.90;;
30068;SDS011;16894;49.456;10.644;2023-07-02T13:38:22;1999.90;;;999.90;;
30068;SDS011;16894;49.456;10.644;2023-07-02T13:41:07;1999.90;;;999.90;;
30068;SDS011;16894;49.456;10.644;2023-07-02T13:43:51;1999.90;;;999.90;;
30068;SDS011;16894;49.456;10.644;2023-07-02T13:46:35;1999.90;;;999.90;;
30068;SDS011;16894;49.456;10.644;2023-07-02T13:49:19;1999.90;;;999.90;;
30068;SDS011;16894;49.456;10.644;2023-07-02T13:52:05;1999.90;;;999.90;;
30068;SDS011;16894;49.456;10.644;2023-07-02T13:54:49;1999.90;;;999.90;;
30068;SDS011;16894;49.456;10.644;2023-07-02T13:57:34;1999.90;;;999.90;;
30068;SDS011;16894;49.456;10.644;2023-07-02T14:00:19;1999.90;;;999.90;;
30068;SDS011;16894;49.456;10.644;2023-07-02T14:03:03;1999.90;;;999.90;;
30068;SDS011;16894;49.456;10.644;2023-07-02T14:05:49;1999.90;;;999.90;;
30068;SDS011;16894;49.456;10.644;2023-07-02T14:08:33;1999.90;;;999.90;;
30068;SDS011;16894;49.456;10.644;2023-07-02T14:11:18;1999.90;;;999.90;;
30068;SDS011;16894;49.456;10.644;2023-07-02T14:14:03;1999.90;;;999.90;;
30068;SDS011;16894;49.456;10.644;2023-07-02T14:16:48;1999.90;;;999.90;;
30068;SDS011;16894;49.456;10.644;2023-07-02T14:19:33;1999.90;;;999.90;;
30068;SDS011;16894;49.456;10.644;2023-07-02T14:22:17;1999.90;;;999.90;;
30068;SDS011;16894;49.456;10.644;2023-07-02T14:25:01;1999.90;;;999.90;;
30068;SDS011;16894;49.456;10.644;2023-07-02T14:27:45;1999.90;;;999.90;;
30068;SDS011;16894;49.456;10.644;2023-07-02T14:30:29;1999.90;;;999.90;;
30068;SDS011;16894;49.456;10.644;2023-07-02T14:33:14;1999.90;;;999.90;;
30068;SDS011;16894;49.456;10.644;2023-07-02T14:35:59;1999.90;;;999.90;;
30068;SDS011;16894;49.456;10.644;2023-07-02T14:38:44;1999.90;;;999.90;;
30068;SDS011;16894;49.456;10.644;2023-07-02T14:41:28;1999.90;;;999.90;;
30068;SDS011;16894;49.456;10.644;2023-07-02T14:44:18;1999.90;;;999.90;;
30068;SDS011;16894;49.456;10.644;2023-07-02T14:47:02;1999.90;;;999.90;;
30068;SDS011;16894;49.456;10.644;2023-07-02T14:49:47;1999.90;;;999.90;;
30068;SDS011;16894;49.456;10.644;2023-07-02T14:52:31;1999.90;;;999.90;;
30068;SDS011;16894;49.456;10.644;2023-07-02T14:55:15;1999.90;;;999.90;;
30068;SDS011;16894;49.456;10.644;2023-07-02T14:58:00;1999.90;;;999.90;;
30068;SDS011;16894;49.456;10.644;2023-07-02T15:00:48;1999.90;;;999.90;;
30068;SDS011;16894;49.456;10.644;2023-07-02T15:03:36;1999.90;;;999.90;;
30068;SDS011;16894;49.456;10.644;2023-07-02T15:06:20;1999.90;;;999.90;;
30068;SDS011;16894;49.456;10.644;2023-07-02T15:09:05;1999.90;;;999.90;;
30068;SDS011;16894;49.456;10.644;2023-07-02T15:11:49;1999.90;;;999.90;;